createdAt,value
2023-03-31T00:01:01.008Z,2.40
2023-03-31T00:03:28.154Z,2.28
2023-03-31T00:06:00.085Z,2.05
2023-03-31T00:08:30.656Z,1.58
2023-03-31T00:11:02.673Z,2.35
2023-03-31T00:13:30.964Z,2.25
2023-03-31T00:16:05.439Z,2.92
2023-03-31T00:18:33.183Z,1.63
2023-03-31T00:21:14.472Z,1.58
2023-03-31T00:23:42.278Z,3.10
2023-03-31T00:26:12.346Z,1.80
2023-03-31T00:28:39.241Z,2.40
2023-03-31T00:31:06.532Z,2.13
2023-03-31T00:33:33.792Z,1.98
2023-03-31T00:36:02.460Z,2.40
2023-03-31T00:38:30.804Z,1.65
2023-03-31T00:40:58.519Z,1.45
2023-03-31T00:43:37.426Z,1.80
2023-03-31T00:46:18.615Z,2.03
2023-03-31T00:48:57.908Z,2.20
2023-03-31T00:51:28.908Z,2.40
2023-03-31T00:54:05.335Z,1.50
2023-03-31T00:56:40.239Z,1.38
2023-03-31T00:59:11.906Z,1.73
2023-03-31T01:01:43.117Z,1.65
2023-03-31T01:04:13.170Z,1.73
2023-03-31T01:06:51.600Z,1.52
2023-03-31T01:09:19.088Z,1.75
2023-03-31T01:11:47.653Z,2.42
2023-03-31T01:14:15.064Z,2.05
2023-03-31T01:16:42.284Z,2.05
2023-03-31T01:19:49.661Z,2.10
2023-03-31T01:22:46.147Z,2.30
2023-03-31T01:26:23.811Z,2.67
2023-03-31T01:29:09.261Z,1.60
2023-03-31T01:32:22.468Z,2.00
2023-03-31T01:34:52.113Z,1.98
2023-03-31T01:38:01.880Z,1.80
2023-03-31T01:41:08.678Z,1.90
2023-03-31T01:44:08.609Z,2.53
2023-03-31T01:46:48.628Z,1.80
2023-03-31T01:49:32.587Z,1.80
2023-03-31T01:52:10.288Z,1.75
2023-03-31T01:54:50.761Z,1.90
2023-03-31T01:57:40.124Z,1.85
2023-03-31T02:00:16.302Z,1.88
2023-03-31T02:03:12.683Z,2.03
2023-03-31T02:06:15.215Z,2.63
2023-03-31T02:08:48.581Z,1.80
2023-03-31T02:11:16.382Z,1.85
2023-03-31T02:13:47.044Z,1.60
2023-03-31T02:16:24.444Z,1.90
2023-03-31T02:19:02.378Z,1.65
2023-03-31T02:21:34.821Z,1.58
2023-03-31T02:24:08.258Z,1.45
2023-03-31T02:26:42.870Z,1.10
2023-03-31T02:29:10.125Z,1.45
2023-03-31T02:32:01.661Z,1.10
2023-03-31T02:34:28.622Z,2.00
2023-03-31T02:36:55.740Z,1.50
2023-03-31T02:39:29.650Z,1.63
2023-03-31T02:41:57.519Z,1.20
2023-03-31T02:44:25.351Z,1.35
2023-03-31T02:46:52.860Z,1.30
2023-03-31T02:49:21.530Z,1.27
2023-03-31T02:52:37.180Z,1.40
2023-03-31T02:55:40.459Z,1.40
2023-03-31T02:58:36.863Z,1.10
2023-03-31T03:01:31.982Z,1.20
2023-03-31T03:04:17.147Z,1.33
2023-03-31T03:07:22.069Z,1.95
2023-03-31T03:10:12.180Z,1.60
2023-03-31T03:13:10.588Z,1.58
2023-03-31T03:15:53.147Z,1.35
2023-03-31T03:18:20.399Z,1.70
2023-03-31T03:20:51.548Z,1.42
2023-03-31T03:23:19.001Z,1.77
2023-03-31T03:25:47.081Z,2.00
2023-03-31T03:28:14.100Z,2.08
2023-03-31T03:30:41.271Z,1.55
2023-03-31T03:33:08.558Z,1.75
2023-03-31T03:35:36.154Z,1.42
2023-03-31T03:38:03.336Z,1.73
2023-03-31T03:40:30.835Z,1.70
2023-03-31T03:42:58.061Z,1.88
2023-03-31T03:45:25.050Z,1.83
2023-03-31T03:47:51.997Z,1.33
2023-03-31T03:50:19.079Z,2.40
2023-03-31T03:52:46.253Z,1.35
2023-03-31T03:55:14.037Z,1.65
2023-03-31T03:57:41.062Z,1.60
2023-03-31T04:00:12.588Z,2.13
2023-03-31T04:02:40.475Z,1.80
2023-03-31T04:05:08.048Z,1.55
2023-03-31T04:07:35.100Z,2.08
2023-03-31T04:10:02.114Z,2.70
2023-03-31T04:12:29.360Z,2.15
2023-03-31T04:14:56.374Z,2.45
2023-03-31T04:17:32.799Z,2.30
2023-03-31T04:20:10.235Z,2.38
2023-03-31T04:22:41.153Z,2.08
2023-03-31T04:25:16.707Z,2.97
2023-03-31T04:27:50.854Z,2.55
2023-03-31T04:30:24.115Z,2.53
2023-03-31T04:33:00.929Z,2.33
2023-03-31T04:35:42.864Z,2.53
2023-03-31T04:38:10.135Z,2.08
2023-03-31T04:40:37.015Z,3.30
2023-03-31T04:43:03.934Z,2.42
2023-03-31T04:45:30.952Z,2.88
2023-03-31T04:47:58.065Z,2.72
2023-03-31T04:50:25.000Z,2.75
2023-03-31T04:52:51.974Z,3.35
2023-03-31T04:55:19.061Z,3.17
2023-03-31T04:57:45.976Z,3.42
2023-03-31T05:00:14.332Z,3.63
2023-03-31T05:02:41.344Z,2.50
2023-03-31T05:05:08.807Z,3.15
2023-03-31T05:07:35.837Z,3.30
2023-03-31T05:10:03.016Z,3.25
2023-03-31T05:12:30.104Z,3.80
2023-03-31T05:14:56.944Z,4.45
2023-03-31T05:17:24.099Z,3.80
2023-03-31T05:19:51.086Z,4.65
2023-03-31T05:22:20.803Z,4.70
2023-03-31T05:24:47.958Z,4.68
2023-03-31T05:27:16.646Z,4.90
2023-03-31T05:29:44.102Z,4.72
2023-03-31T05:32:11.167Z,4.68
2023-03-31T05:34:38.199Z,4.60
2023-03-31T05:37:05.387Z,5.38
2023-03-31T05:39:33.217Z,5.18
2023-03-31T05:42:03.326Z,4.07
2023-03-31T05:44:30.313Z,4.40
2023-03-31T05:46:57.388Z,5.00
2023-03-31T05:49:24.381Z,4.50
2023-03-31T05:51:51.878Z,4.53
2023-03-31T05:54:19.612Z,4.47
2023-03-31T05:56:46.761Z,5.15
2023-03-31T05:59:15.083Z,4.10
2023-03-31T06:01:42.749Z,4.25
2023-03-31T06:04:09.971Z,4.53
2023-03-31T06:06:38.276Z,5.43
2023-03-31T06:09:06.534Z,4.85
2023-03-31T06:11:33.406Z,5.03
2023-03-31T06:14:03.066Z,5.18
2023-03-31T06:16:32.691Z,4.45
2023-03-31T06:18:59.937Z,5.28
2023-03-31T06:21:27.086Z,4.60
2023-03-31T06:23:56.106Z,5.10
2023-03-31T06:26:23.608Z,4.63
2023-03-31T06:28:50.538Z,5.97
2023-03-31T06:31:24.488Z,6.53
2023-03-31T06:33:52.268Z,5.28
2023-03-31T06:36:22.774Z,5.28
2023-03-31T06:38:51.287Z,5.20
2023-03-31T06:41:21.011Z,4.75
2023-03-31T06:43:48.406Z,5.43
2023-03-31T06:46:16.082Z,4.82
2023-03-31T06:48:43.241Z,5.43
2023-03-31T06:51:10.992Z,5.72
2023-03-31T06:53:37.948Z,5.35
2023-03-31T06:56:06.722Z,5.60
2023-03-31T06:58:34.481Z,5.18
2023-03-31T07:01:04.620Z,5.93
2023-03-31T07:03:35.559Z,5.78
2023-03-31T07:06:02.615Z,5.05
2023-03-31T07:08:29.717Z,5.65
2023-03-31T07:10:59.883Z,5.65
2023-03-31T07:13:28.828Z,5.15
2023-03-31T07:15:56.750Z,4.57
2023-03-31T07:18:34.256Z,4.65
2023-03-31T07:21:05.786Z,4.80
2023-03-31T07:26:02.823Z,4.50
2023-03-31T07:28:31.021Z,4.90
2023-03-31T07:30:58.040Z,3.10
2023-03-31T07:33:25.055Z,3.80
2023-03-31T07:36:03.583Z,3.58
2023-03-31T07:41:09.157Z,3.30
2023-03-31T07:43:36.768Z,4.10
2023-03-31T07:46:05.976Z,4.82
2023-03-31T07:48:34.370Z,5.68
2023-03-31T07:51:01.637Z,6.20
2023-03-31T07:53:29.507Z,5.63
2023-03-31T07:55:56.451Z,5.57
2023-03-31T07:58:23.324Z,5.80
2023-03-31T08:00:50.439Z,5.85
2023-03-31T08:03:17.446Z,4.97
2023-03-31T08:05:46.857Z,4.10
2023-03-31T08:08:16.728Z,3.47
2023-03-31T08:10:43.832Z,4.00
2023-03-31T08:13:10.797Z,4.32
2023-03-31T08:15:37.730Z,5.20
2023-03-31T08:18:06.551Z,3.65
2023-03-31T08:20:33.566Z,3.50
2023-03-31T08:23:00.499Z,3.35
2023-03-31T08:25:27.410Z,1.95
2023-03-31T08:27:54.349Z,2.50
2023-03-31T08:30:21.470Z,2.35
2023-03-31T08:32:48.552Z,2.88
2023-03-31T08:35:15.662Z,2.03
2023-03-31T08:37:42.681Z,3.45
2023-03-31T08:40:20.492Z,2.67
2023-03-31T08:42:53.323Z,2.83
2023-03-31T08:45:33.246Z,3.75
2023-03-31T08:48:31.123Z,2.20
2023-03-31T08:51:06.624Z,2.72
2023-03-31T08:53:59.131Z,2.78
2023-03-31T08:56:28.154Z,2.50
2023-03-31T08:58:55.896Z,3.13
2023-03-31T09:01:57.181Z,3.45
2023-03-31T09:04:33.683Z,3.75
2023-03-31T09:07:39.273Z,3.70
2023-03-31T09:10:45.387Z,2.88
2023-03-31T09:13:49.365Z,3.20
2023-03-31T09:16:25.954Z,2.40
2023-03-31T09:19:00.449Z,1.88
2023-03-31T09:21:41.016Z,1.52
2023-03-31T09:24:29.724Z,2.55
2023-03-31T09:27:02.709Z,2.30
2023-03-31T09:29:41.644Z,3.17
2023-03-31T09:32:21.666Z,3.13
2023-03-31T09:34:57.281Z,2.63
2023-03-31T09:37:31.780Z,3.28
2023-03-31T09:40:08.058Z,3.22
2023-03-31T09:42:38.858Z,3.40
2023-03-31T09:45:06.674Z,4.00
2023-03-31T09:47:44.731Z,4.22
2023-03-31T09:50:12.148Z,3.35
2023-03-31T09:52:44.829Z,3.50
2023-03-31T09:55:32.037Z,3.95
2023-03-31T09:58:08.216Z,3.40
2023-03-31T10:00:35.568Z,3.08
2023-03-31T10:03:07.687Z,4.20
2023-03-31T10:05:40.047Z,3.42
2023-03-31T10:08:31.291Z,5.05
2023-03-31T10:11:04.429Z,3.95
2023-03-31T10:14:09.887Z,3.20
2023-03-31T10:16:55.350Z,3.28
2023-03-31T10:19:26.849Z,3.40
2023-03-31T10:22:22.034Z,3.25
2023-03-31T10:24:51.546Z,2.55
2023-03-31T10:27:28.795Z,2.90
2023-03-31T10:30:01.840Z,2.10
2023-03-31T10:32:43.149Z,1.75
2023-03-31T10:35:36.468Z,2.75
2023-03-31T10:38:36.959Z,2.75
2023-03-31T10:41:04.574Z,2.28
2023-03-31T10:43:50.937Z,2.47
2023-03-31T10:46:18.145Z,2.30
2023-03-31T10:48:46.053Z,2.35
2023-03-31T10:51:31.255Z,2.55
2023-03-31T10:54:04.854Z,2.47
2023-03-31T10:56:43.658Z,2.28
2023-03-31T10:59:41.350Z,2.15
2023-03-31T11:02:39.172Z,2.05
2023-03-31T11:05:37.418Z,2.13
2023-03-31T11:08:25.641Z,3.00
2023-03-31T11:11:05.934Z,3.20
2023-03-31T11:14:01.412Z,2.95
2023-03-31T11:16:37.184Z,2.65
2023-03-31T11:19:54.041Z,2.83
2023-03-31T11:23:02.055Z,2.40
2023-03-31T11:25:53.186Z,1.90
2023-03-31T11:28:53.784Z,2.72
2023-03-31T11:32:04.602Z,2.00
2023-03-31T11:35:16.611Z,1.67
2023-03-31T11:38:16.072Z,1.90
2023-03-31T11:41:12.258Z,1.70
2023-03-31T11:44:03.854Z,1.20
2023-03-31T11:46:44.179Z,1.23
2023-03-31T11:49:38.859Z,1.30
2023-03-31T11:52:17.529Z,1.10
2023-03-31T11:55:16.125Z,1.08
2023-03-31T11:57:56.718Z,1.30
2023-03-31T12:00:48.378Z,0.90
2023-03-31T12:03:21.620Z,0.93
2023-03-31T12:06:02.526Z,0.88
2023-03-31T12:08:41.996Z,1.00
2023-03-31T12:11:15.656Z,0.70
2023-03-31T12:13:51.740Z,0.60
2023-03-31T12:16:41.641Z,0.65
2023-03-31T12:19:18.565Z,1.17
2023-03-31T12:21:53.339Z,0.90
2023-03-31T12:24:20.441Z,0.95
2023-03-31T12:27:09.522Z,1.10
2023-03-31T12:29:52.277Z,1.45
2023-03-31T12:32:25.384Z,1.30
2023-03-31T12:35:04.998Z,1.63
2023-03-31T12:37:34.799Z,1.52
2023-03-31T12:40:34.158Z,1.33
2023-03-31T12:43:19.454Z,1.58
2023-03-31T12:46:29.305Z,1.17
2023-03-31T12:49:20.847Z,1.75
2023-03-31T12:52:04.425Z,1.48
2023-03-31T12:55:04.974Z,1.98
2023-03-31T12:57:32.957Z,1.63
2023-03-31T13:00:12.823Z,1.70
2023-03-31T13:02:42.228Z,2.05
2023-03-31T13:05:37.399Z,1.65
2023-03-31T13:08:06.519Z,2.15
2023-03-31T13:10:50.602Z,1.60
2023-03-31T13:13:20.829Z,1.40
2023-03-31T13:16:01.278Z,1.25
2023-03-31T13:18:35.883Z,1.65
2023-03-31T13:21:07.960Z,1.40
2023-03-31T13:23:37.295Z,1.23
2023-03-31T13:26:05.015Z,1.60
2023-03-31T13:28:42.604Z,1.13
2023-03-31T13:31:15.274Z,1.70
2023-03-31T13:33:57.783Z,1.70
2023-03-31T13:36:33.861Z,1.08
2023-03-31T13:39:14.824Z,1.30
2023-03-31T13:42:01.846Z,1.13
2023-03-31T13:44:56.896Z,1.60
2023-03-31T13:48:01.638Z,1.80
2023-03-31T13:51:15.993Z,1.63
2023-03-31T13:54:10.154Z,1.30
2023-03-31T13:57:19.367Z,1.90
2023-03-31T14:00:27.265Z,1.42
2023-03-31T14:03:18.527Z,1.75
2023-03-31T14:06:23.320Z,1.50
2023-03-31T14:08:56.665Z,2.05
2023-03-31T14:11:24.961Z,1.90
2023-03-31T14:14:14.754Z,2.55
2023-03-31T14:17:01.795Z,2.00
2023-03-31T14:19:36.479Z,2.63
2023-03-31T14:22:36.132Z,1.38
2023-03-31T14:25:42.205Z,1.50
2023-03-31T14:28:41.727Z,2.28
2023-03-31T14:31:20.233Z,1.95
2023-03-31T14:34:24.753Z,1.88
2023-03-31T14:37:01.937Z,2.40
2023-03-31T14:39:59.071Z,2.15
2023-03-31T14:42:44.886Z,2.08
2023-03-31T14:45:25.000Z,1.38
2023-03-31T14:48:04.761Z,1.80
2023-03-31T14:50:35.861Z,1.83
2023-03-31T14:53:04.834Z,2.33
2023-03-31T14:55:54.201Z,1.85
2023-03-31T14:58:31.936Z,2.10
2023-03-31T15:00:59.686Z,1.35
2023-03-31T15:03:27.765Z,2.08
2023-03-31T15:05:59.803Z,2.00
2023-03-31T15:08:28.006Z,1.77
2023-03-31T15:11:12.006Z,1.80
2023-03-31T15:14:03.626Z,1.75
2023-03-31T15:16:43.428Z,1.55
2023-03-31T15:19:34.952Z,1.50
2023-03-31T15:22:19.134Z,2.00
2023-03-31T15:24:46.943Z,1.70
2023-03-31T15:27:37.227Z,1.48
2023-03-31T15:30:15.973Z,1.52
2023-03-31T15:32:43.085Z,1.85
2023-03-31T15:35:34.051Z,1.40
2023-03-31T15:38:05.659Z,1.20
2023-03-31T15:40:43.175Z,2.33
2023-03-31T15:43:25.780Z,1.40
2023-03-31T15:46:01.798Z,1.92
2023-03-31T15:48:36.884Z,1.23
2023-03-31T15:51:14.191Z,1.85
2023-03-31T15:53:51.140Z,1.15
2023-03-31T15:56:45.541Z,1.52
2023-03-31T15:59:38.048Z,1.50
2023-03-31T16:02:19.415Z,1.80
2023-03-31T16:04:51.299Z,1.23
2023-03-31T16:07:30.111Z,1.40
2023-03-31T16:10:08.274Z,1.65
2023-03-31T16:13:04.093Z,1.95
2023-03-31T16:15:44.360Z,1.02
2023-03-31T16:18:44.204Z,1.88
2023-03-31T16:21:12.896Z,3.42
2023-03-31T16:23:41.966Z,2.90
2023-03-31T16:26:08.987Z,2.03
2023-03-31T16:28:38.508Z,1.73
2023-03-31T16:31:07.370Z,1.65
2023-03-31T16:33:56.080Z,1.23
2023-03-31T16:36:23.294Z,1.60
2023-03-31T16:38:55.068Z,0.80
2023-03-31T16:41:27.863Z,0.93
2023-03-31T16:43:54.862Z,0.70
2023-03-31T16:46:23.785Z,0.68
2023-03-31T16:48:52.051Z,0.88
2023-03-31T16:51:19.753Z,0.50
2023-03-31T16:53:48.403Z,1.02
2023-03-31T16:56:15.904Z,0.50
2023-03-31T16:58:43.786Z,0.50
2023-03-31T17:01:11.717Z,0.47
2023-03-31T17:03:41.574Z,0.80
2023-03-31T17:06:13.422Z,0.75
2023-03-31T17:08:40.864Z,0.93
2023-03-31T17:11:12.354Z,1.05
2023-03-31T17:13:41.815Z,1.05
2023-03-31T17:16:19.176Z,0.70
2023-03-31T17:18:51.496Z,0.97
2023-03-31T17:21:19.457Z,0.80
2023-03-31T17:23:47.733Z,1.20
2023-03-31T17:26:15.420Z,0.82
2023-03-31T17:28:42.891Z,1.00
2023-03-31T17:31:21.618Z,0.82
2023-03-31T17:33:50.447Z,0.95
2023-03-31T17:36:17.989Z,1.10
2023-03-31T17:38:45.261Z,1.20
2023-03-31T17:41:13.840Z,1.38
2023-03-31T17:43:44.709Z,1.48
2023-03-31T17:46:12.985Z,1.45
2023-03-31T17:48:41.218Z,1.95
2023-03-31T17:51:17.013Z,1.50
2023-03-31T17:53:46.294Z,1.27
2023-03-31T18:10:34.291Z,1.92
2023-03-31T18:13:01.640Z,1.85
2023-03-31T18:15:28.696Z,1.92
2023-03-31T18:17:56.127Z,1.80
2023-03-31T18:20:24.382Z,1.90
2023-03-31T18:22:51.421Z,1.52
2023-03-31T18:25:18.559Z,1.55
2023-03-31T18:27:47.285Z,1.90
2023-03-31T18:30:14.423Z,1.27
2023-03-31T18:32:41.941Z,1.00
2023-03-31T18:35:09.700Z,1.00
2023-03-31T18:37:36.581Z,0.88
2023-03-31T18:40:07.056Z,0.90
2023-03-31T18:42:34.605Z,0.80
2023-03-31T18:45:01.523Z,0.93
2023-03-31T18:47:28.952Z,1.92
2023-03-31T18:49:56.470Z,0.95
2023-03-31T18:52:23.759Z,1.10
2023-03-31T18:54:51.661Z,1.17
2023-03-31T18:57:21.626Z,0.88
2023-03-31T18:59:52.168Z,0.95
2023-03-31T19:02:23.524Z,0.90
2023-03-31T19:04:53.464Z,1.00
2023-03-31T19:07:21.737Z,1.02
2023-03-31T19:09:49.265Z,0.90
2023-03-31T19:12:18.440Z,1.38
2023-03-31T19:14:48.843Z,1.35
2023-03-31T19:17:17.818Z,1.42
2023-03-31T19:19:45.934Z,1.17
2023-03-31T19:22:13.170Z,1.45
2023-03-31T19:24:40.582Z,0.77
2023-03-31T19:27:07.903Z,1.38
2023-03-31T19:29:35.358Z,1.35
2023-03-31T19:32:14.455Z,1.25
2023-03-31T19:34:42.551Z,1.20
2023-03-31T19:37:10.279Z,1.27
2023-03-31T19:39:38.106Z,1.50
2023-03-31T19:42:05.125Z,0.90
2023-03-31T19:44:32.724Z,1.05
2023-03-31T19:47:01.015Z,1.65
2023-03-31T19:49:28.732Z,1.35
2023-03-31T19:51:56.765Z,1.30
2023-03-31T19:54:24.889Z,1.50
2023-03-31T19:56:54.747Z,1.13
2023-03-31T19:59:22.561Z,1.33
2023-03-31T20:01:49.706Z,1.33
2023-03-31T20:04:18.475Z,1.30
2023-03-31T20:06:47.602Z,1.10
2023-03-31T20:09:16.019Z,1.15
2023-03-31T20:11:43.698Z,1.50
2023-03-31T20:14:11.385Z,1.35
2023-03-31T20:16:39.012Z,1.40
2023-03-31T20:19:08.324Z,1.13
2023-03-31T20:21:38.941Z,1.83
2023-03-31T20:24:06.938Z,1.38
2023-03-31T20:26:34.826Z,1.98
2023-03-31T20:29:04.701Z,1.27
2023-03-31T20:31:38.065Z,1.02
2023-03-31T20:34:12.829Z,1.60
2023-03-31T20:36:42.211Z,1.23
2023-03-31T20:39:10.614Z,1.73
2023-03-31T20:41:38.712Z,1.45
2023-03-31T20:44:12.742Z,1.25
2023-03-31T20:46:42.483Z,1.20
2023-03-31T20:49:09.694Z,1.23
2023-03-31T20:51:39.146Z,1.10
2023-03-31T20:54:08.484Z,1.17
2023-03-31T20:56:39.713Z,1.10
2023-03-31T20:59:11.876Z,1.10
2023-03-31T21:01:40.401Z,1.20
2023-03-31T21:04:14.526Z,0.95
2023-03-31T21:06:46.147Z,1.15
2023-03-31T21:09:14.890Z,1.10
2023-03-31T21:11:42.064Z,1.33
2023-03-31T21:14:14.572Z,1.30
2023-03-31T21:16:42.085Z,1.58
2023-03-31T21:19:09.725Z,1.40
2023-03-31T21:21:38.984Z,1.40
2023-03-31T21:24:06.674Z,1.13
2023-03-31T21:26:36.228Z,1.48
2023-03-31T21:29:03.258Z,1.15
2023-03-31T21:31:31.173Z,1.63
2023-03-31T21:33:59.381Z,1.33
2023-03-31T21:36:27.097Z,1.50
2023-03-31T21:38:56.143Z,1.10
2023-03-31T21:41:28.030Z,1.50
2023-03-31T21:43:56.161Z,1.07
2023-03-31T21:46:27.672Z,1.20
2023-03-31T21:49:00.220Z,1.33
2023-03-31T21:51:28.638Z,1.48
2023-03-31T21:53:57.078Z,1.15
2023-03-31T21:56:28.014Z,0.95
2023-03-31T21:58:56.234Z,1.33
2023-03-31T22:01:23.853Z,1.70
2023-03-31T22:03:52.510Z,1.17
2023-03-31T22:06:19.907Z,1.25
2023-03-31T22:08:47.241Z,1.00
2023-03-31T22:11:16.286Z,1.13
2023-03-31T22:13:44.642Z,1.20
2023-03-31T22:16:24.538Z,1.30
2023-03-31T22:18:54.306Z,1.27
2023-03-31T22:21:24.886Z,1.38
2023-03-31T22:23:58.891Z,1.10
2023-03-31T22:26:29.319Z,1.10
2023-03-31T22:28:56.873Z,1.30
2023-03-31T22:31:24.785Z,1.17
2023-03-31T22:33:53.283Z,1.35
2023-03-31T22:36:20.972Z,1.38
2023-03-31T22:38:48.487Z,1.25
2023-03-31T22:41:15.776Z,1.23
2023-03-31T22:43:45.820Z,1.80
2023-03-31T22:46:13.756Z,1.30
2023-03-31T22:48:40.904Z,1.35
2023-03-31T22:51:09.033Z,1.40
2023-03-31T22:53:36.702Z,0.88
2023-03-31T22:56:07.261Z,1.30
2023-03-31T22:58:35.766Z,0.98
2023-03-31T23:01:04.898Z,0.93
2023-03-31T23:03:32.487Z,0.90
2023-03-31T23:06:06.606Z,1.20
2023-03-31T23:08:35.940Z,1.10
2023-03-31T23:11:08.281Z,1.25
2023-03-31T23:13:36.455Z,0.85
2023-03-31T23:16:17.705Z,1.00
2023-03-31T23:18:50.037Z,0.82
2023-03-31T23:21:22.014Z,0.85
2023-03-31T23:23:56.990Z,0.93
2023-03-31T23:26:26.443Z,1.38
2023-03-31T23:28:54.504Z,1.30
2023-03-31T23:31:28.439Z,1.20
2023-03-31T23:33:58.312Z,0.98
2023-03-31T23:36:26.778Z,1.00
2023-03-31T23:38:56.470Z,0.82
2023-03-31T23:41:28.959Z,1.50
2023-03-31T23:45:14.425Z,1.10
2023-03-31T23:47:42.711Z,1.13
2023-03-31T23:50:11.960Z,1.20
2023-03-31T23:52:40.980Z,1.08
2023-03-31T23:55:08.469Z,0.82
2023-03-31T23:57:36.155Z,0.90
